Time;durP1;ratioP1;P1;durP2;ratioP2;P2;SDS_P1;SDS_P2;PMS_P1;PMS_P2;Temp;Humidity;BMP_temperature;BMP_pressure;BME280_temperature;BME280_humidity;BME280_pressure;Samples;Min_cycle;Max_cycle;Signal;HPM_P1;HPM_P2
2021/06/11 00:00:40;;;;;;;2.72;2.53;;;24.40;57.40;;;;;;5050810;28;20084;-56
2021/06/11 00:03:08;;;;;;;2.90;2.60;;;24.40;57.40;;;;;;5052220;28;20040;-56
2021/06/11 00:05:35;;;;;;;2.80;2.58;;;24.50;57.40;;;;;;5047392;28;20514;-54
2021/06/11 00:08:03;;;;;;;2.63;2.42;;;24.40;57.40;;;;;;5052073;28;20037;-56
2021/06/11 00:10:31;;;;;;;2.67;2.47;;;24.50;57.50;;;;;;5048919;28;20048;-56
2021/06/11 00:12:59;;;;;;;2.75;2.55;;;24.40;57.40;;;;;;5038556;28;20045;-55
2021/06/11 00:15:27;;;;;;;2.88;2.67;;;24.40;57.40;;;;;;5052106;28;20053;-55
2021/06/11 00:17:55;;;;;;;2.83;2.60;;;24.50;57.50;;;;;;5053229;28;20500;-56
2021/06/11 00:20:23;;;;;;;2.85;2.60;;;24.40;57.40;;;;;;5052697;28;20049;-56
2021/06/11 00:22:51;;;;;;;2.90;2.70;;;24.40;57.40;;;;;;5034305;28;20049;-56
2021/06/11 00:25:26;;;;;;;2.70;2.50;;;24.40;57.40;;;;;;5034203;28;20073;-56
2021/06/11 00:28:01;;;;;;;2.75;2.55;;;24.40;57.40;;;;;;5033889;28;20065;-57
2021/06/11 00:30:30;;;;;;;2.65;2.35;;;24.40;57.40;;;;;;5051680;28;20049;-53
2021/06/11 00:32:58;;;;;;;2.70;2.47;;;24.40;57.40;;;;;;5034301;28;20133;-56
2021/06/11 00:35:30;;;;;;;3.10;2.80;;;24.40;57.50;;;;;;5033943;28;20060;-56
2021/06/11 00:37:58;;;;;;;2.47;2.28;;;24.40;57.40;;;;;;5035029;28;20053;-57
2021/06/11 00:40:26;;;;;;;3.15;2.85;;;24.40;57.40;;;;;;5052026;28;20056;-56
2021/06/11 00:42:53;;;;;;;2.83;2.63;;;24.40;57.50;;;;;;5051495;28;20056;-55
2021/06/11 00:45:21;;;;;;;2.70;2.50;;;24.40;57.40;;;;;;5064369;28;20045;-54
2021/06/11 00:47:49;;;;;;;2.72;2.53;;;24.40;57.40;;;;;;5053956;28;20045;-55
2021/06/11 00:50:25;;;;;;;2.78;2.50;;;24.40;57.40;;;;;;5056942;28;20056;-53
2021/06/11 00:52:56;;;;;;;2.50;2.30;;;24.40;57.40;;;;;;5055216;28;20501;-54
2021/06/11 00:55:24;;;;;;;2.83;2.63;;;24.40;57.40;;;;;;5055111;28;20110;-53
2021/06/11 00:57:51;;;;;;;2.55;2.35;;;24.40;57.50;;;;;;5054968;28;20143;-54
2021/06/11 01:00:20;;;;;;;2.72;2.53;;;24.40;57.50;;;;;;5055351;28;20053;-54
2021/06/11 01:02:47;;;;;;;2.80;2.60;;;24.40;57.50;;;;;;5045336;28;20053;-55
2021/06/11 01:05:15;;;;;;;2.65;2.38;;;24.40;57.50;;;;;;5048368;28;20107;-55
2021/06/11 01:07:47;;;;;;;2.83;2.58;;;24.40;57.50;;;;;;5050894;28;20452;-55
2021/06/11 01:10:16;;;;;;;2.63;2.42;;;24.40;57.50;;;;;;5054938;28;20091;-56
2021/06/11 01:12:45;;;;;;;2.85;2.65;;;24.40;57.50;;;;;;5054846;28;20055;-54
2021/06/11 01:15:13;;;;;;;2.70;2.50;;;24.40;57.50;;;;;;5049009;28;20525;-56
2021/06/11 01:17:41;;;;;;;2.35;2.15;;;24.40;57.50;;;;;;5039634;28;20061;-56
2021/06/11 01:20:12;;;;;;;3.00;2.78;;;24.40;57.50;;;;;;5045299;28;20124;-51
2021/06/11 01:23:00;;;;;;;2.78;2.58;;;24.40;57.50;;;;;;5049516;28;20046;-55
2021/06/11 01:25:37;;;;;;;2.60;2.40;;;24.40;57.50;;;;;;5061906;28;20045;-56
2021/06/11 01:28:06;;;;;;;2.70;2.50;;;24.40;57.50;;;;;;5055870;28;20186;-55
2021/06/11 01:30:35;;;;;;;2.70;2.40;;;24.40;57.60;;;;;;5048695;28;20057;-53
2021/06/11 01:33:03;;;;;;;2.70;2.50;;;24.40;57.60;;;;;;5039205;28;20049;-51
2021/06/11 01:35:54;;;;;;;2.80;2.60;;;24.40;57.60;;;;;;5044394;28;20049;-54
2021/06/11 01:38:23;;;;;;;2.70;2.50;;;24.40;57.60;;;;;;5055897;28;20078;-53
2021/06/11 01:40:54;;;;;;;2.78;2.58;;;24.40;57.60;;;;;;5054258;28;20045;-53
2021/06/11 01:43:24;;;;;;;3.25;2.50;;;24.40;57.60;;;;;;5054170;28;20041;-53
2021/06/11 01:45:51;;;;;;;2.55;2.35;;;24.40;57.60;;;;;;5054306;28;20056;-53
2021/06/11 01:48:19;;;;;;;2.45;2.20;;;24.40;57.60;;;;;;5049052;28;20124;-52
2021/06/11 01:50:48;;;;;;;2.80;2.60;;;24.40;57.60;;;;;;5042047;28;20048;-55
2021/06/11 01:53:19;;;;;;;2.38;2.17;;;24.40;57.60;;;;;;5054287;28;20071;-54
2021/06/11 01:55:48;;;;;;;3.20;2.80;;;24.40;57.60;;;;;;5054435;28;20045;-57
2021/06/11 01:58:17;;;;;;;2.42;2.22;;;24.40;57.60;;;;;;5054054;28;20608;-56
2021/06/11 02:00:46;;;;;;;2.67;2.47;;;24.40;57.60;;;;;;5053925;28;20056;-54
2021/06/11 02:03:16;;;;;;;2.88;2.58;;;24.40;57.60;;;;;;5053812;28;20063;-55
2021/06/11 02:05:45;;;;;;;2.60;2.40;;;24.40;57.60;;;;;;5053703;28;20068;-50
2021/06/11 02:08:14;;;;;;;2.63;2.42;;;24.40;57.60;;;;;;5044132;28;20071;-56
2021/06/11 02:10:42;;;;;;;2.80;2.60;;;24.40;57.70;;;;;;5037741;28;20045;-54
2021/06/11 02:13:10;;;;;;;2.60;2.40;;;24.40;57.70;;;;;;5053727;28;20044;-50
2021/06/11 02:15:38;;;;;;;2.78;2.58;;;24.40;57.70;;;;;;5037391;28;20103;-54
2021/06/11 02:18:06;;;;;;;2.63;2.42;;;24.40;57.70;;;;;;5035162;28;20107;-52
2021/06/11 02:20:33;;;;;;;2.63;2.40;;;24.40;57.70;;;;;;5053889;28;20049;-57
2021/06/11 02:23:04;;;;;;;2.75;2.55;;;24.40;57.70;;;;;;5038465;28;20107;-55
2021/06/11 02:25:31;;;;;;;2.80;2.60;;;24.40;57.70;;;;;;5053807;28;20052;-51
2021/06/11 02:27:59;;;;;;;2.78;2.58;;;24.40;57.70;;;;;;5039981;28;20103;-53
2021/06/11 02:30:26;;;;;;;2.60;2.25;;;24.40;57.70;;;;;;5050183;28;20045;-54
2021/06/11 02:32:54;;;;;;;2.80;2.60;;;24.40;57.70;;;;;;5054391;28;20053;-53
2021/06/11 02:35:24;;;;;;;2.90;2.70;;;24.40;57.70;;;;;;5052403;28;20053;-53
2021/06/11 02:37:53;;;;;;;2.45;2.25;;;24.40;57.80;;;;;;5054445;28;20053;-54
2021/06/11 02:40:22;;;;;;;2.55;2.35;;;24.40;57.70;;;;;;5043431;28;20141;-53
2021/06/11 02:42:54;;;;;;;2.25;2.08;;;24.40;57.70;;;;;;5046845;28;20048;-53
2021/06/11 02:45:28;;;;;;;2.50;2.30;;;24.40;57.70;;;;;;5054264;28;20136;-55
2021/06/11 02:48:21;;;;;;;2.67;2.47;;;24.40;57.80;;;;;;5053202;28;20052;-53
2021/06/11 02:51:04;;;;;;;2.33;2.13;;;24.40;57.80;;;;;;5053033;28;20052;-56
2021/06/11 02:53:34;;;;;;;2.92;2.72;;;24.40;57.80;;;;;;5053985;28;20068;-55
2021/06/11 02:56:14;;;;;;;2.40;2.20;;;24.40;57.80;;;;;;5052743;28;20056;-51
2021/06/11 02:59:02;;;;;;;2.40;2.20;;;24.40;57.80;;;;;;5052807;28;20057;-53
2021/06/11 03:01:35;;;;;;;2.67;2.47;;;24.40;57.80;;;;;;5053176;28;20059;-56
2021/06/11 03:04:07;;;;;;;2.60;2.40;;;24.40;57.80;;;;;;5038100;28;20509;-56
2021/06/11 03:06:36;;;;;;;3.20;2.90;;;24.40;57.80;;;;;;5050869;28;20099;-56
2021/06/11 03:09:09;;;;;;;2.60;2.40;;;24.40;57.80;;;;;;5051309;28;20099;-54
2021/06/11 03:11:41;;;;;;;2.35;2.15;;;24.40;57.80;;;;;;5053416;28;20051;-56
2021/06/11 03:14:11;;;;;;;2.72;2.53;;;24.40;57.80;;;;;;5053739;28;20049;-56
2021/06/11 03:16:43;;;;;;;2.60;2.40;;;24.40;57.80;;;;;;5053826;28;20493;-56
2021/06/11 03:19:14;;;;;;;2.58;2.38;;;24.40;57.80;;;;;;5068053;28;20382;-56
2021/06/11 03:21:56;;;;;;;2.45;2.25;;;24.40;57.80;;;;;;5052418;28;20056;-55
2021/06/11 03:24:28;;;;;;;2.70;2.50;;;24.40;57.80;;;;;;5052340;28;20132;-56
2021/06/11 03:27:02;;;;;;;2.50;2.30;;;24.40;57.70;;;;;;5051633;28;20045;-51
2021/06/11 03:29:33;;;;;;;2.17;2.08;;;24.40;57.70;;;;;;5052295;28;20045;-55
2021/06/11 03:32:05;;;;;;;2.80;2.60;;;24.40;57.70;;;;;;5052307;28;20106;-55
2021/06/11 03:34:38;;;;;;;2.35;2.15;;;24.40;57.70;;;;;;5051138;28;20052;-55
2021/06/11 03:37:15;;;;;;;3.38;2.65;;;24.40;57.70;;;;;;5052250;28;20140;-55
2021/06/11 03:39:58;;;;;;;2.35;2.15;;;24.40;57.70;;;;;;5053286;28;20053;-56
2021/06/11 03:42:28;;;;;;;2.65;2.45;;;24.40;57.60;;;;;;5052124;28;20144;-56
2021/06/11 03:44:58;;;;;;;2.40;2.20;;;24.40;57.70;;;;;;5052432;28;20048;-54
2021/06/11 03:47:31;;;;;;;3.13;2.58;;;24.40;57.60;;;;;;5052384;28;20049;-55
2021/06/11 03:50:01;;;;;;;2.88;2.40;;;24.40;57.60;;;;;;5052368;28;20056;-55
2021/06/11 03:52:34;;;;;;;2.53;2.33;;;24.40;57.60;;;;;;5051975;28;20049;-55
2021/06/11 03:55:08;;;;;;;2.08;1.98;;;24.40;57.60;;;;;;5038925;28;20053;-55
2021/06/11 03:57:38;;;;;;;2.38;2.17;;;24.40;57.60;;;;;;5048680;28;20056;-56
2021/06/11 04:00:10;;;;;;;2.38;2.17;;;24.40;57.60;;;;;;5039713;28;20116;-56
2021/06/11 04:02:48;;;;;;;2.58;2.38;;;24.40;57.50;;;;;;5035480;28;20584;-55
2021/06/11 04:05:16;;;;;;;2.45;2.25;;;24.50;57.60;;;;;;5035675;28;20049;-56
2021/06/11 04:07:56;;;;;;;2.78;2.55;;;24.50;57.60;;;;;;5048112;28;20514;-56
2021/06/11 04:10:37;;;;;;;2.42;2.25;;;24.50;57.50;;;;;;5040551;28;20045;-53
2021/06/11 04:13:33;;;;;;;2.67;2.47;;;24.50;57.40;;;;;;5050248;28;20053;-56
2021/06/11 04:16:02;;;;;;;2.60;2.40;;;24.50;57.40;;;;;;5053456;28;20049;-56
2021/06/11 04:18:33;;;;;;;2.50;2.30;;;24.60;57.40;;;;;;5052168;28;20045;-56
2021/06/11 04:21:03;;;;;;;2.50;2.30;;;24.60;57.40;;;;;;5052763;28;20052;-55
2021/06/11 04:23:35;;;;;;;2.40;2.20;;;24.60;57.30;;;;;;5052845;28;20045;-56
2021/06/11 04:26:05;;;;;;;2.33;2.13;;;24.60;57.30;;;;;;5055848;28;20084;-56
2021/06/11 04:28:34;;;;;;;2.40;2.20;;;24.60;57.20;;;;;;5056964;28;20128;-54
2021/06/11 04:31:02;;;;;;;2.80;2.60;;;24.60;57.20;;;;;;5055653;28;20049;-53
2021/06/11 04:33:31;;;;;;;2.38;2.17;;;24.60;57.20;;;;;;5054555;28;20107;-57
2021/06/11 04:35:59;;;;;;;2.47;2.28;;;24.60;57.10;;;;;;5055300;28;20136;-55
2021/06/11 04:38:26;;;;;;;2.67;2.47;;;24.70;57.20;;;;;;5055544;28;20060;-56
2021/06/11 04:40:54;;;;;;;2.78;2.58;;;24.70;57.10;;;;;;5059481;28;20565;-54
2021/06/11 04:43:24;;;;;;;2.55;2.35;;;24.70;57.10;;;;;;5039286;28;20077;-56
2021/06/11 04:45:51;;;;;;;2.58;2.38;;;24.70;57.10;;;;;;5039077;28;20128;-54
2021/06/11 04:48:19;;;;;;;2.60;2.40;;;24.70;57.00;;;;;;5039306;28;20100;-55
2021/06/11 04:50:47;;;;;;;2.65;2.45;;;24.70;57.00;;;;;;5040060;28;20128;-56
2021/06/11 04:53:15;;;;;;;2.38;2.17;;;24.80;57.00;;;;;;5044943;28;20045;-55
2021/06/11 04:55:43;;;;;;;2.47;2.28;;;24.80;56.90;;;;;;5055176;28;20053;-57
2021/06/11 04:58:10;;;;;;;2.70;2.47;;;24.80;56.80;;;;;;5055373;28;20075;-52
2021/06/11 05:00:42;;;;;;;2.50;2.30;;;24.90;56.80;;;;;;5066995;28;20501;-54
2021/06/11 05:03:18;;;;;;;2.28;2.10;;;24.90;56.80;;;;;;5038824;28;20410;-57
2021/06/11 05:05:46;;;;;;;2.53;2.33;;;24.90;56.80;;;;;;5040081;28;20124;-56
2021/06/11 05:08:13;;;;;;;2.60;2.40;;;24.90;56.70;;;;;;5043594;28;20040;-58
2021/06/11 05:10:41;;;;;;;2.47;2.28;;;25.00;56.70;;;;;;5041380;28;20040;-53
2021/06/11 05:13:09;;;;;;;2.60;2.40;;;25.00;56.50;;;;;;5054079;28;20378;-55
2021/06/11 05:15:36;;;;;;;2.70;2.50;;;25.00;56.50;;;;;;5054836;28;20132;-57
2021/06/11 05:18:05;;;;;;;2.35;2.15;;;25.10;56.40;;;;;;5054765;28;20125;-53
2021/06/11 05:20:34;;;;;;;2.13;2.03;;;25.10;56.30;;;;;;5054621;28;20048;-54
2021/06/11 05:23:02;;;;;;;2.47;2.28;;;25.10;56.20;;;;;;5053615;28;20056;-52
2021/06/11 05:25:29;;;;;;;2.00;1.90;;;25.20;56.20;;;;;;5052941;28;20462;-55
2021/06/11 05:27:57;;;;;;;2.40;2.20;;;25.20;56.10;;;;;;5053868;28;20071;-53
2021/06/11 05:30:26;;;;;;;2.28;2.08;;;25.20;56.30;;;;;;5052245;28;20056;-52
2021/06/11 05:32:54;;;;;;;2.22;2.03;;;25.30;56.00;;;;;;5054677;28;20106;-53
2021/06/11 05:35:22;;;;;;;2.28;2.08;;;25.30;56.00;;;;;;5038583;28;20563;-54
2021/06/11 05:37:50;;;;;;;2.38;2.20;;;25.30;55.90;;;;;;5037836;28;20049;-54
2021/06/11 05:40:18;;;;;;;2.40;2.20;;;25.30;55.80;;;;;;5051027;28;20045;-54
2021/06/11 05:42:47;;;;;;;2.42;2.22;;;25.40;55.90;;;;;;5054208;28;20056;-53
2021/06/11 05:45:15;;;;;;;2.75;2.17;;;25.30;55.70;;;;;;5055235;28;20437;-53
2021/06/11 05:47:43;;;;;;;2.50;2.30;;;25.40;55.70;;;;;;5054066;28;20072;-54
2021/06/11 05:50:11;;;;;;;2.20;2.00;;;25.40;55.70;;;;;;5054989;28;20124;-53
2021/06/11 05:52:39;;;;;;;2.25;2.05;;;25.40;55.70;;;;;;5045949;28;20103;-52
2021/06/11 05:55:07;;;;;;;2.53;2.10;;;25.40;55.60;;;;;;5039752;28;20064;-54
2021/06/11 05:57:35;;;;;;;2.10;1.90;;;25.40;55.60;;;;;;5038686;28;20049;-52
2021/06/11 06:00:04;;;;;;;2.40;2.20;;;25.50;55.50;;;;;;5038777;28;20103;-53
2021/06/11 06:02:32;;;;;;;2.38;2.17;;;25.50;55.50;;;;;;5044717;28;20049;-54
2021/06/11 06:05:01;;;;;;;2.42;2.22;;;25.50;55.40;;;;;;5053566;28;20120;-55
2021/06/11 06:07:28;;;;;;;2.30;2.10;;;25.50;55.40;;;;;;5044565;28;20493;-50
2021/06/11 06:09:57;;;;;;;2.60;2.40;;;25.50;55.40;;;;;;5053998;28;20049;-50
2021/06/11 06:12:24;;;;;;;2.50;2.30;;;25.60;55.30;;;;;;5057591;28;20435;-54
2021/06/11 06:14:52;;;;;;;2.00;1.80;;;25.60;55.30;;;;;;5067130;28;20045;-52
2021/06/11 06:17:20;;;;;;;2.47;2.28;;;25.60;55.80;;;;;;5053800;28;20067;-58
2021/06/11 06:19:47;;;;;;;2.45;2.25;;;25.60;55.20;;;;;;5053733;28;20374;-55
2021/06/11 06:22:35;;;;;;;2.30;2.10;;;25.60;55.10;;;;;;5053318;28;20114;-54
2021/06/11 06:25:05;;;;;;;2.30;2.10;;;25.70;55.10;;;;;;5050728;28;20123;-53
2021/06/11 06:27:35;;;;;;;1.98;1.85;;;25.70;55.00;;;;;;5036964;28;20059;-56
2021/06/11 06:30:04;;;;;;;2.20;2.00;;;25.70;55.00;;;;;;5036925;28;20037;-57
2021/06/11 06:32:31;;;;;;;2.00;1.90;;;25.70;54.90;;;;;;5036318;28;20055;-54
2021/06/11 06:34:59;;;;;;;2.40;2.20;;;25.70;54.80;;;;;;5035672;28;20046;-56
2021/06/11 06:37:28;;;;;;;2.67;2.17;;;25.70;54.70;;;;;;5052324;28;20052;-56
2021/06/11 06:39:56;;;;;;;2.33;2.00;;;25.80;54.70;;;;;;5053145;28;20040;-55
2021/06/11 06:42:24;;;;;;;2.15;2.00;;;25.80;54.60;;;;;;5052170;28;20052;-55
2021/06/11 06:44:51;;;;;;;2.35;2.15;;;25.80;54.50;;;;;;5035631;28;20046;-55
2021/06/11 06:47:19;;;;;;;2.42;2.22;;;25.80;54.50;;;;;;5036694;28;20413;-54
2021/06/11 06:49:47;;;;;;;2.20;2.00;;;25.90;54.50;;;;;;5037651;28;20053;-52
2021/06/11 06:52:16;;;;;;;2.58;2.38;;;25.90;54.40;;;;;;5038382;28;20049;-54
2021/06/11 06:54:44;;;;;;;2.20;2.00;;;25.90;54.40;;;;;;5050412;28;20083;-50
2021/06/11 06:57:12;;;;;;;2.40;2.20;;;25.90;54.40;;;;;;5054120;28;20060;-54
2021/06/11 06:59:40;;;;;;;2.55;2.00;;;25.90;54.30;;;;;;5053696;28;20060;-52
2021/06/11 07:02:08;;;;;;;2.67;2.47;;;25.90;54.30;;;;;;5051372;28;20458;-52
2021/06/11 07:04:36;;;;;;;2.30;2.10;;;25.90;54.20;;;;;;5053806;28;20118;-55
2021/06/11 07:07:04;;;;;;;2.20;2.03;;;25.90;54.20;;;;;;5050197;28;20045;-54
2021/06/11 07:09:32;;;;;;;2.17;2.05;;;25.90;54.20;;;;;;5053845;28;20432;-54
2021/06/11 07:12:00;;;;;;;2.53;2.33;;;25.90;54.20;;;;;;5052524;28;20053;-57
2021/06/11 07:14:28;;;;;;;2.28;2.08;;;25.90;54.20;;;;;;5045704;28;20045;-55
2021/06/11 07:16:55;;;;;;;2.53;2.30;;;25.90;54.20;;;;;;5041779;28;20091;-52
2021/06/11 07:19:23;;;;;;;2.30;2.10;;;26.00;54.20;;;;;;5047619;28;20095;-53
2021/06/11 07:21:54;;;;;;;2.20;2.00;;;25.90;54.20;;;;;;5040649;28;20052;-54
2021/06/11 07:24:22;;;;;;;2.72;2.33;;;25.90;54.20;;;;;;5052336;28;20179;-54
2021/06/11 07:26:50;;;;;;;2.08;1.88;;;25.90;54.20;;;;;;5052185;28;20049;-55
2021/06/11 07:29:17;;;;;;;2.30;2.00;;;25.90;54.20;;;;;;5051265;28;20071;-53
2021/06/11 07:31:45;;;;;;;2.20;2.00;;;26.00;54.20;;;;;;5038029;28;20119;-55
2021/06/11 07:34:13;;;;;;;2.30;2.10;;;25.90;54.10;;;;;;5052039;28;20135;-57
2021/06/11 07:36:40;;;;;;;2.28;2.08;;;26.00;54.20;;;;;;5067120;28;20515;-57
2021/06/11 07:39:08;;;;;;;2.53;2.33;;;26.00;54.20;;;;;;5052785;28;20053;-56
2021/06/11 07:41:36;;;;;;;2.05;1.85;;;26.00;54.20;;;;;;5034820;28;20132;-52
2021/06/11 07:44:04;;;;;;;2.35;2.15;;;25.90;54.20;;;;;;5049894;28;20048;-53
2021/06/11 07:46:36;;;;;;;2.50;2.30;;;26.00;54.20;;;;;;5037802;28;20107;-54
2021/06/11 07:49:05;;;;;;;2.27;2.07;;;26.00;54.20;;;;;;5035721;28;20046;-51
2021/06/11 07:51:32;;;;;;;2.50;2.30;;;25.90;54.10;;;;;;5036588;28;20049;-54
2021/06/11 07:54:00;;;;;;;1.95;1.85;;;25.90;54.10;;;;;;5037051;28;20172;-56
2021/06/11 07:56:28;;;;;;;2.40;2.20;;;26.00;54.20;;;;;;5051137;28;20127;-56
2021/06/11 07:58:55;;;;;;;2.22;2.03;;;26.00;54.10;;;;;;5050240;28;20095;-53
2021/06/11 08:01:25;;;;;;;1.83;1.73;;;26.10;54.10;;;;;;5050994;28;20203;-52
2021/06/11 08:03:53;;;;;;;2.47;2.28;;;26.00;54.00;;;;;;5050683;28;20509;-55
2021/06/11 08:06:21;;;;;;;2.30;2.10;;;26.10;54.00;;;;;;5043875;28;20486;-57
2021/06/11 08:08:48;;;;;;;2.00;1.90;;;26.10;53.90;;;;;;5046449;28;20049;-57
2021/06/11 08:11:16;;;;;;;2.05;1.95;;;26.20;53.90;;;;;;5051978;28;20481;-52
2021/06/11 08:13:43;;;;;;;2.80;2.10;;;26.20;53.90;;;;;;5044562;28;20046;-55
2021/06/11 08:16:11;;;;;;;2.30;2.10;;;26.20;53.80;;;;;;5042967;28;20049;-54
2021/06/11 08:18:39;;;;;;;2.20;2.00;;;26.20;53.70;;;;;;5044877;28;20045;-55
2021/06/11 08:21:07;;;;;;;2.45;2.00;;;26.20;53.70;;;;;;5035189;28;20046;-54
2021/06/11 08:23:35;;;;;;;2.10;1.90;;;26.20;53.70;;;;;;5035511;28;20081;-55
2021/06/11 08:26:04;;;;;;;2.25;2.05;;;26.30;53.60;;;;;;5035276;28;20045;-53
2021/06/11 08:28:31;;;;;;;1.92;1.80;;;26.30;53.60;;;;;;5039021;28;20056;-53
2021/06/11 08:30:59;;;;;;;2.80;1.90;;;26.30;53.60;;;;;;5065901;28;20045;-55
2021/06/11 08:33:26;;;;;;;2.00;1.90;;;26.30;53.60;;;;;;5051512;28;20079;-55
2021/06/11 08:35:54;;;;;;;2.13;1.92;;;26.30;53.50;;;;;;5051470;28;20468;-51
2021/06/11 08:38:22;;;;;;;2.17;1.98;;;26.30;53.40;;;;;;5051868;28;20072;-55
2021/06/11 08:40:50;;;;;;;2.40;2.20;;;26.30;53.40;;;;;;5034113;28;20045;-53
2021/06/11 08:43:19;;;;;;;1.80;1.70;;;26.40;53.40;;;;;;5052298;28;20045;-56
2021/06/11 08:45:48;;;;;;;2.20;2.00;;;26.30;53.40;;;;;;5034177;28;20049;-55
2021/06/11 08:48:16;;;;;;;2.38;1.95;;;26.40;53.40;;;;;;5050915;28;20103;-57
2021/06/11 08:50:44;;;;;;;1.98;1.77;;;26.40;53.40;;;;;;5053397;28;20051;-56
2021/06/11 08:53:11;;;;;;;2.38;2.17;;;26.40;53.30;;;;;;5051858;28;20091;-55
2021/06/11 08:55:39;;;;;;;2.13;1.95;;;26.40;53.30;;;;;;5051641;28;20067;-52
2021/06/11 08:58:07;;;;;;;1.85;1.75;;;26.40;53.20;;;;;;5051211;28;20041;-56
2021/06/11 09:00:35;;;;;;;2.63;2.42;;;26.40;53.20;;;;;;5050618;28;20046;-56
2021/06/11 09:03:13;;;;;;;2.10;1.90;;;26.40;53.20;;;;;;5051121;28;20563;-55
2021/06/11 09:06:06;;;;;;;2.15;1.95;;;26.50;53.20;;;;;;5036973;28;20046;-57
2021/06/11 09:08:36;;;;;;;2.28;2.08;;;26.50;53.90;;;;;;5049044;28;20068;-56
2021/06/11 09:11:16;;;;;;;2.17;1.75;;;26.50;53.20;;;;;;5054097;28;20061;-53
2021/06/11 09:13:47;;;;;;;2.00;1.90;;;26.50;53.20;;;;;;5053886;28;20045;-53
2021/06/11 09:16:23;;;;;;;2.58;2.33;;;26.50;53.20;;;;;;5054917;28;20048;-54
2021/06/11 09:19:06;;;;;;;1.88;1.77;;;26.40;53.10;;;;;;5037746;28;20457;-56
2021/06/11 09:21:41;;;;;;;2.28;2.08;;;26.50;53.20;;;;;;5037503;28;20119;-55
2021/06/11 09:24:21;;;;;;;2.22;1.98;;;26.50;53.20;;;;;;5054776;28;20464;-54
2021/06/11 09:26:57;;;;;;;1.85;1.75;;;26.40;53.20;;;;;;5054831;28;20041;-55
2021/06/11 09:29:30;;;;;;;2.17;1.98;;;26.40;53.20;;;;;;5037361;28;20623;-51
2021/06/11 09:32:18;;;;;;;2.20;2.00;;;26.40;53.20;;;;;;5054713;28;20052;-56
2021/06/11 09:35:00;;;;;;;2.08;1.90;;;26.40;53.30;;;;;;5037547;28;20099;-53
2021/06/11 09:37:30;;;;;;;2.17;1.98;;;26.40;53.20;;;;;;5055137;28;20049;-53
2021/06/11 09:40:12;;;;;;;2.10;2.00;;;26.40;53.30;;;;;;5038022;28;20045;-55
2021/06/11 09:42:44;;;;;;;2.30;2.10;;;26.40;53.30;;;;;;5040196;28;20045;-59
2021/06/11 09:45:14;;;;;;;;;;;26.40;53.30;;;;;;5055257;28;20055;-57
2021/06/11 09:47:44;;;;;;;2.33;2.13;;;26.40;53.30;;;;;;5054600;28;19951;-57
2021/06/11 09:50:20;;;;;;;1.98;1.85;;;26.40;53.30;;;;;;5055094;28;20072;-56
2021/06/11 09:52:52;;;;;;;2.15;1.95;;;26.40;53.30;;;;;;5051940;28;20040;-56
2021/06/11 09:55:32;;;;;;;2.08;1.88;;;26.40;53.30;;;;;;5054036;28;20049;-56
2021/06/11 09:58:14;;;;;;;1.90;1.80;;;26.40;53.30;;;;;;5038213;28;20136;-57
2021/06/11 10:00:53;;;;;;;3.55;2.00;;;26.40;53.30;;;;;;5054041;28;20164;-56
2021/06/11 10:03:40;;;;;;;2.20;2.00;;;26.40;53.40;;;;;;5053988;28;20045;-56
2021/06/11 10:06:09;;;;;;;2.72;2.08;;;26.40;53.40;;;;;;5053109;28;20036;-56
2021/06/11 10:08:38;;;;;;;2.13;1.92;;;26.40;53.40;;;;;;5050691;28;20095;-54
2021/06/11 10:11:14;;;;;;;2.40;2.20;;;26.40;53.50;;;;;;5040017;28;20091;-56
2021/06/11 10:13:43;;;;;;;3.78;2.17;;;26.40;53.50;;;;;;5050803;28;20124;-56
2021/06/11 10:16:14;;;;;;;2.30;2.10;;;26.30;53.40;;;;;;5037353;28;20052;-54
2021/06/11 10:18:43;;;;;;;2.15;1.95;;;26.30;53.50;;;;;;5037229;28;20045;-55
2021/06/11 10:21:11;;;;;;;2.17;1.85;;;26.30;53.50;;;;;;5039273;28;20094;-52
2021/06/11 10:23:40;;;;;;;1.80;1.70;;;26.30;53.60;;;;;;5053472;28;20489;-57
2021/06/11 10:26:10;;;;;;;1.83;1.73;;;26.30;53.60;;;;;;5054598;28;20045;-58
2021/06/11 10:28:47;;;;;;;2.30;2.10;;;26.30;53.60;;;;;;5036361;28;20135;-55
2021/06/11 10:31:18;;;;;;;2.20;2.00;;;26.20;53.60;;;;;;5037881;28;20063;-56
2021/06/11 10:33:52;;;;;;;2.08;1.88;;;26.20;53.70;;;;;;5036272;28;20084;-55
2021/06/11 10:36:30;;;;;;;2.00;1.80;;;26.20;53.70;;;;;;5036272;28;20057;-55
2021/06/11 10:39:10;;;;;;;2.30;2.10;;;26.20;53.80;;;;;;5037729;28;20063;-54
2021/06/11 10:42:04;;;;;;;2.00;1.80;;;26.20;53.90;;;;;;5037427;28;20145;-54
2021/06/11 10:44:46;;;;;;;2.10;1.90;;;26.10;53.90;;;;;;5055312;28;20041;-56
2021/06/11 10:47:16;;;;;;;1.73;1.63;;;26.10;54.00;;;;;;5053105;28;20497;-55
2021/06/11 10:49:56;;;;;;;2.17;1.98;;;26.10;54.00;;;;;;5054092;28;20047;-54
2021/06/11 10:52:32;;;;;;;2.33;2.13;;;26.10;54.10;;;;;;5052900;28;20521;-52
2021/06/11 10:55:15;;;;;;;2.05;1.85;;;26.00;54.10;;;;;;5051726;28;20062;-50
2021/06/11 10:58:03;;;;;;;2.03;1.90;;;26.00;54.30;;;;;;5046688;28;20064;-55
2021/06/11 11:00:35;;;;;;;2.47;2.00;;;26.00;54.40;;;;;;5045718;28;20048;-56
2021/06/11 11:03:08;;;;;;;2.20;1.90;;;25.90;54.40;;;;;;5044981;28;20060;-52
2021/06/11 11:05:38;;;;;;;2.10;1.90;;;25.90;54.40;;;;;;5050199;28;20056;-55
2021/06/11 11:08:07;;;;;;;2.05;1.85;;;25.90;54.50;;;;;;5045292;28;20041;-55
2021/06/11 11:10:43;;;;;;;2.38;2.10;;;25.90;54.60;;;;;;5036701;28;20052;-55
2021/06/11 11:13:16;;;;;;;2.20;2.00;;;25.90;54.60;;;;;;5043438;28;20040;-56
2021/06/11 11:15:45;;;;;;;2.55;2.35;;;25.80;54.60;;;;;;5047157;28;20045;-54
2021/06/11 11:18:15;;;;;;;1.80;1.70;;;25.80;54.70;;;;;;5036189;28;20506;-56
2021/06/11 11:20:44;;;;;;;2.13;1.92;;;25.80;54.70;;;;;;5036215;28;20053;-57
2021/06/11 11:23:16;;;;;;;2.97;2.08;;;25.80;54.70;;;;;;5041083;28;20079;-53
2021/06/11 11:25:46;;;;;;;1.63;1.52;;;25.80;54.70;;;;;;5048992;28;20553;-52
2021/06/11 11:28:15;;;;;;;1.83;1.73;;;25.80;54.80;;;;;;5040608;28;20037;-54
2021/06/11 11:30:46;;;;;;;2.20;2.00;;;25.80;54.80;;;;;;5050667;28;20287;-53
2021/06/11 11:33:15;;;;;;;2.60;2.40;;;25.80;54.80;;;;;;5038025;28;20044;-52
2021/06/11 11:35:51;;;;;;;1.83;1.65;;;25.80;54.80;;;;;;5052087;28;20067;-54
2021/06/11 11:38:18;;;;;;;2.40;2.20;;;25.90;54.80;;;;;;5053416;28;20048;-55
2021/06/11 11:40:46;;;;;;;2.08;1.90;;;25.90;54.70;;;;;;5050323;28;20047;-54
2021/06/11 11:43:14;;;;;;;2.35;2.15;;;25.90;54.60;;;;;;5052214;28;20076;-56
2021/06/11 11:45:43;;;;;;;1.83;1.65;;;25.90;54.60;;;;;;5052286;28;20540;-53
2021/06/11 11:48:11;;;;;;;2.17;1.98;;;25.90;54.50;;;;;;5034797;28;20049;-57
2021/06/11 11:50:40;;;;;;;1.90;1.75;;;26.00;54.40;;;;;;5052116;28;20044;-53
2021/06/11 11:53:07;;;;;;;1.80;1.70;;;26.10;54.30;;;;;;5052209;28;20044;-55
2021/06/11 11:55:35;;;;;;;1.88;1.77;;;26.20;54.80;;;;;;5050861;28;20131;-54
2021/06/11 11:58:03;;;;;;;2.15;1.95;;;26.20;54.00;;;;;;5034926;28;20513;-54
2021/06/11 12:00:31;;;;;;;1.80;1.70;;;26.20;53.80;;;;;;5050905;28;20455;-55
2021/06/11 12:02:59;;;;;;;1.80;1.70;;;26.30;53.70;;;;;;5051765;28;20045;-54
2021/06/11 12:05:28;;;;;;;1.73;1.63;;;26.40;53.60;;;;;;5037352;28;20045;-53
2021/06/11 12:07:55;;;;;;;2.03;1.90;;;26.40;53.50;;;;;;5049049;28;20124;-56
2021/06/11 12:10:24;;;;;;;2.17;1.98;;;26.40;53.30;;;;;;5051740;28;20055;-56
2021/06/11 12:12:52;;;;;;;1.90;1.80;;;26.50;53.30;;;;;;5040854;28;20049;-55
2021/06/11 12:15:21;;;;;;;1.88;1.77;;;26.50;53.20;;;;;;5035957;28;20076;-54
2021/06/11 12:17:50;;;;;;;2.30;2.10;;;26.50;53.20;;;;;;5047284;28;20528;-56
2021/06/11 12:20:19;;;;;;;1.67;1.42;;;26.50;53.20;;;;;;5042842;28;20050;-52
2021/06/11 12:22:46;;;;;;;1.80;1.67;;;26.50;53.20;;;;;;5036503;28;20136;-55
2021/06/11 12:25:14;;;;;;;2.30;2.00;;;26.50;53.30;;;;;;5043694;28;20497;-50
2021/06/11 12:27:42;;;;;;;2.22;2.03;;;26.50;53.30;;;;;;5051771;28;20045;-52
2021/06/11 12:30:10;;;;;;;1.88;1.77;;;26.40;53.30;;;;;;5052730;28;20099;-56
2021/06/11 12:32:38;;;;;;;2.08;1.80;;;26.40;53.40;;;;;;5050815;28;20476;-51
2021/06/11 12:35:06;;;;;;;5.57;1.98;;;26.40;53.40;;;;;;5048088;28;20197;-54
2021/06/11 12:37:34;;;;;;;1.98;1.88;;;26.40;53.40;;;;;;5036321;28;20136;-54
2021/06/11 12:40:03;;;;;;;2.10;1.90;;;26.40;53.50;;;;;;5037525;28;20040;-56
2021/06/11 12:42:40;;;;;;;2.13;1.92;;;26.30;53.50;;;;;;5051520;28;20044;-52
2021/06/11 12:45:08;;;;;;;1.85;1.70;;;26.30;53.60;;;;;;5055760;28;20110;-53
2021/06/11 12:47:38;;;;;;;1.70;1.60;;;26.20;53.70;;;;;;5055403;28;20042;-56
2021/06/11 12:50:10;;;;;;;2.20;2.00;;;26.20;53.80;;;;;;5053582;28;20037;-54
2021/06/11 12:52:38;;;;;;;2.00;1.80;;;26.10;53.90;;;;;;5038979;28;20113;-54
2021/06/11 12:55:06;;;;;;;2.05;1.85;;;26.10;54.00;;;;;;5038750;28;20049;-55
2021/06/11 12:57:36;;;;;;;1.80;1.70;;;26.10;54.20;;;;;;5039018;28;20397;-54
2021/06/11 13:00:05;;;;;;;2.25;2.05;;;26.00;54.30;;;;;;5037799;28;20061;-55
2021/06/11 13:02:34;;;;;;;1.83;1.73;;;25.90;54.40;;;;;;5037592;28;20085;-57
2021/06/11 13:05:11;;;;;;;2.10;2.00;;;25.90;54.40;;;;;;5054047;28;20041;-55